sensor_id;sensor_type;location;lat;lon;timestamp;temperature;humidity
34768;DHT22;21755;43.608;1.236;2022-09-09T00:01:58;19.50;99.90
34768;DHT22;21755;43.608;1.236;2022-09-09T00:04:34;19.50;99.90
34768;DHT22;21755;43.608;1.236;2022-09-09T00:07:03;19.50;99.90
34768;DHT22;21755;43.608;1.236;2022-09-09T00:09:34;19.90;99.90
34768;DHT22;21755;43.608;1.236;2022-09-09T00:12:17;20.70;99.90
34768;DHT22;21755;43.608;1.236;2022-09-09T00:15:17;20.40;99.90
34768;DHT22;21755;43.608;1.236;2022-09-09T00:20:40;21.10;99.90
34768;DHT22;21755;43.608;1.236;2022-09-09T00:28:27;20.00;99.90
34768;DHT22;21755;43.608;1.236;2022-09-09T00:30:56;20.70;99.90
34768;DHT22;21755;43.608;1.236;2022-09-09T00:33:24;20.80;99.90
34768;DHT22;21755;43.608;1.236;2022-09-09T00:36:01;20.80;99.90
34768;DHT22;21755;43.608;1.236;2022-09-09T00:41:27;20.80;99.90
34768;DHT22;21755;43.608;1.236;2022-09-09T00:44:15;20.30;99.90
34768;DHT22;21755;43.608;1.236;2022-09-09T00:47:17;19.80;99.90
34768;DHT22;21755;43.608;1.236;2022-09-09T00:56:16;19.30;99.90
34768;DHT22;21755;43.608;1.236;2022-09-09T00:59:12;19.40;99.90
34768;DHT22;21755;43.608;1.236;2022-09-09T01:01:42;19.30;99.90
34768;DHT22;21755;43.608;1.236;2022-09-09T01:04:18;19.50;99.90
34768;DHT22;21755;43.608;1.236;2022-09-09T01:06:53;19.50;99.90
34768;DHT22;21755;43.608;1.236;2022-09-09T01:12:32;19.20;99.90
34768;DHT22;21755;43.608;1.236;2022-09-09T01:15:22;19.10;99.90
34768;DHT22;21755;43.608;1.236;2022-09-09T01:20:55;19.00;99.90
34768;DHT22;21755;43.608;1.236;2022-09-09T01:28:58;19.30;99.90
34768;DHT22;21755;43.608;1.236;2022-09-09T01:31:39;19.30;99.90
34768;DHT22;21755;43.608;1.236;2022-09-09T01:34:14;19.20;99.90
34768;DHT22;21755;43.608;1.236;2022-09-09T01:36:56;19.10;99.90
34768;DHT22;21755;43.608;1.236;2022-09-09T01:39:23;19.10;99.90
34768;DHT22;21755;43.608;1.236;2022-09-09T01:41:49;19.00;99.90
34768;DHT22;21755;43.608;1.236;2022-09-09T01:44:15;18.90;99.90
34768;DHT22;21755;43.608;1.236;2022-09-09T01:46:41;18.90;99.90
34768;DHT22;21755;43.608;1.236;2022-09-09T01:49:07;18.90;99.90
34768;DHT22;21755;43.608;1.236;2022-09-09T01:51:35;18.90;99.90
34768;DHT22;21755;43.608;1.236;2022-09-09T01:54:02;19.00;99.90
34768;DHT22;21755;43.608;1.236;2022-09-09T02:01:45;19.30;99.90
34768;DHT22;21755;43.608;1.236;2022-09-09T02:04:24;19.10;99.90
34768;DHT22;21755;43.608;1.236;2022-09-09T02:06:56;18.90;99.90
34768;DHT22;21755;43.608;1.236;2022-09-09T02:09:26;18.80;99.90
34768;DHT22;21755;43.608;1.236;2022-09-09T02:12:01;19.00;99.90
34768;DHT22;21755;43.608;1.236;2022-09-09T02:14:36;20.20;99.90
34768;DHT22;21755;43.608;1.236;2022-09-09T02:17:10;20.80;99.90
34768;DHT22;21755;43.608;1.236;2022-09-09T02:19:52;20.30;99.90
34768;DHT22;21755;43.608;1.236;2022-09-09T02:22:22;19.90;99.90
34768;DHT22;21755;43.608;1.236;2022-09-09T02:24:50;19.50;99.90
34768;DHT22;21755;43.608;1.236;2022-09-09T02:27:20;19.30;99.90
34768;DHT22;21755;43.608;1.236;2022-09-09T02:29:49;19.70;99.90
34768;DHT22;21755;43.608;1.236;2022-09-09T02:32:22;19.50;99.90
34768;DHT22;21755;43.608;1.236;2022-09-09T02:34:53;19.30;99.90
34768;DHT22;21755;43.608;1.236;2022-09-09T02:37:24;19.20;99.90
34768;DHT22;21755;43.608;1.236;2022-09-09T02:39:54;19.00;99.90
34768;DHT22;21755;43.608;1.236;2022-09-09T02:42:20;19.10;99.90
34768;DHT22;21755;43.608;1.236;2022-09-09T02:44:46;19.40;99.90
34768;DHT22;21755;43.608;1.236;2022-09-09T02:50:01;20.70;99.90
34768;DHT22;21755;43.608;1.236;2022-09-09T02:55:36;20.50;99.90
34768;DHT22;21755;43.608;1.236;2022-09-09T02:58:05;20.20;99.90
34768;DHT22;21755;43.608;1.236;2022-09-09T03:00:33;20.20;99.90
34768;DHT22;21755;43.608;1.236;2022-09-09T03:03:03;20.50;99.90
34768;DHT22;21755;43.608;1.236;2022-09-09T03:05:29;20.20;99.90
34768;DHT22;21755;43.608;1.236;2022-09-09T03:07:55;20.10;99.90
34768;DHT22;21755;43.608;1.236;2022-09-09T03:10:20;20.30;99.90
34768;DHT22;21755;43.608;1.236;2022-09-09T03:12:46;20.60;99.90
34768;DHT22;21755;43.608;1.236;2022-09-09T03:15:12;20.30;99.90
34768;DHT22;21755;43.608;1.236;2022-09-09T03:17:40;19.90;99.90
34768;DHT22;21755;43.608;1.236;2022-09-09T03:20:06;19.50;99.90
34768;DHT22;21755;43.608;1.236;2022-09-09T03:22:34;19.90;99.90
34768;DHT22;21755;43.608;1.236;2022-09-09T03:25:00;19.50;99.90
34768;DHT22;21755;43.608;1.236;2022-09-09T03:27:28;20.30;99.90
34768;DHT22;21755;43.608;1.236;2022-09-09T03:29:54;20.60;99.90
34768;DHT22;21755;43.608;1.236;2022-09-09T03:32:21;21.10;99.90
34768;DHT22;21755;43.608;1.236;2022-09-09T03:34:52;20.70;99.90
34768;DHT22;21755;43.608;1.236;2022-09-09T03:37:21;21.30;99.90
34768;DHT22;21755;43.608;1.236;2022-09-09T03:39:48;20.70;99.90
34768;DHT22;21755;43.608;1.236;2022-09-09T03:42:15;20.30;99.90
34768;DHT22;21755;43.608;1.236;2022-09-09T03:44:45;19.90;99.90
34768;DHT22;21755;43.608;1.236;2022-09-09T03:47:17;19.70;99.90
34768;DHT22;21755;43.608;1.236;2022-09-09T03:49:43;19.30;99.90
34768;DHT22;21755;43.608;1.236;2022-09-09T03:52:10;19.10;99.90
34768;DHT22;21755;43.608;1.236;2022-09-09T03:54:35;19.00;99.90
34768;DHT22;21755;43.608;1.236;2022-09-09T03:57:02;18.80;99.90
34768;DHT22;21755;43.608;1.236;2022-09-09T03:59:28;18.70;99.90
34768;DHT22;21755;43.608;1.236;2022-09-09T04:01:54;18.70;99.90
34768;DHT22;21755;43.608;1.236;2022-09-09T04:04:20;18.70;99.90
34768;DHT22;21755;43.608;1.236;2022-09-09T04:06:46;18.60;99.90
34768;DHT22;21755;43.608;1.236;2022-09-09T04:09:14;19.50;99.90
34768;DHT22;21755;43.608;1.236;2022-09-09T04:11:40;20.00;99.90
34768;DHT22;21755;43.608;1.236;2022-09-09T04:14:07;19.90;99.90
34768;DHT22;21755;43.608;1.236;2022-09-09T04:16:33;19.80;99.90
34768;DHT22;21755;43.608;1.236;2022-09-09T04:19:00;19.50;99.90
34768;DHT22;21755;43.608;1.236;2022-09-09T04:21:26;19.70;99.90
34768;DHT22;21755;43.608;1.236;2022-09-09T04:23:52;20.80;99.90
34768;DHT22;21755;43.608;1.236;2022-09-09T04:26:18;21.00;99.90
34768;DHT22;21755;43.608;1.236;2022-09-09T04:28:45;20.60;99.90
34768;DHT22;21755;43.608;1.236;2022-09-09T04:31:30;20.40;99.90
34768;DHT22;21755;43.608;1.236;2022-09-09T04:33:56;20.20;99.90
34768;DHT22;21755;43.608;1.236;2022-09-09T04:36:22;20.80;99.90
34768;DHT22;21755;43.608;1.236;2022-09-09T04:38:48;20.70;99.90
34768;DHT22;21755;43.608;1.236;2022-09-09T04:41:17;20.50;99.90
34768;DHT22;21755;43.608;1.236;2022-09-09T04:43:43;20.50;99.90
34768;DHT22;21755;43.608;1.236;2022-09-09T04:46:09;20.70;99.90
34768;DHT22;21755;43.608;1.236;2022-09-09T04:48:35;20.50;99.90
34768;DHT22;21755;43.608;1.236;2022-09-09T04:51:05;20.20;99.90
34768;DHT22;21755;43.608;1.236;2022-09-09T04:53:32;20.30;99.90
34768;DHT22;21755;43.608;1.236;2022-09-09T04:56:05;20.90;99.90
34768;DHT22;21755;43.608;1.236;2022-09-09T04:58:31;20.80;99.90
34768;DHT22;21755;43.608;1.236;2022-09-09T05:01:12;21.10;99.90
34768;DHT22;21755;43.608;1.236;2022-09-09T05:03:38;21.50;99.90
34768;DHT22;21755;43.608;1.236;2022-09-09T05:06:06;21.20;99.90
34768;DHT22;21755;43.608;1.236;2022-09-09T05:08:32;20.80;99.90
34768;DHT22;21755;43.608;1.236;2022-09-09T05:10:58;20.20;99.90
34768;DHT22;21755;43.608;1.236;2022-09-09T05:13:28;19.90;99.90
34768;DHT22;21755;43.608;1.236;2022-09-09T05:15:54;20.30;99.90
34768;DHT22;21755;43.608;1.236;2022-09-09T05:18:21;20.50;99.90
34768;DHT22;21755;43.608;1.236;2022-09-09T05:20:48;20.30;99.90
34768;DHT22;21755;43.608;1.236;2022-09-09T05:23:14;20.30;99.90
34768;DHT22;21755;43.608;1.236;2022-09-09T05:25:41;20.40;99.90
34768;DHT22;21755;43.608;1.236;2022-09-09T05:28:07;21.10;99.90
34768;DHT22;21755;43.608;1.236;2022-09-09T05:30:33;21.30;99.90
34768;DHT22;21755;43.608;1.236;2022-09-09T05:32:59;20.80;99.90
34768;DHT22;21755;43.608;1.236;2022-09-09T05:35:26;20.20;99.90
34768;DHT22;21755;43.608;1.236;2022-09-09T05:37:52;20.00;99.90
34768;DHT22;21755;43.608;1.236;2022-09-09T05:40:18;20.90;99.90
34768;DHT22;21755;43.608;1.236;2022-09-09T05:42:44;21.20;99.90
34768;DHT22;21755;43.608;1.236;2022-09-09T05:45:10;21.20;99.90
34768;DHT22;21755;43.608;1.236;2022-09-09T05:47:36;20.80;99.90
34768;DHT22;21755;43.608;1.236;2022-09-09T05:50:03;20.50;99.90
34768;DHT22;21755;43.608;1.236;2022-09-09T05:52:30;20.20;99.90
34768;DHT22;21755;43.608;1.236;2022-09-09T05:54:55;20.10;99.90
34768;DHT22;21755;43.608;1.236;2022-09-09T05:57:22;20.30;99.90
34768;DHT22;21755;43.608;1.236;2022-09-09T05:59:48;20.10;99.90
34768;DHT22;21755;43.608;1.236;2022-09-09T06:02:15;20.00;99.90
34768;DHT22;21755;43.608;1.236;2022-09-09T06:04:41;20.40;99.90
34768;DHT22;21755;43.608;1.236;2022-09-09T06:07:07;20.30;99.90
34768;DHT22;21755;43.608;1.236;2022-09-09T06:09:33;20.50;99.90
34768;DHT22;21755;43.608;1.236;2022-09-09T06:11:59;20.60;99.90
34768;DHT22;21755;43.608;1.236;2022-09-09T06:14:24;20.20;99.90
34768;DHT22;21755;43.608;1.236;2022-09-09T06:16:53;20.10;99.90
34768;DHT22;21755;43.608;1.236;2022-09-09T06:19:19;20.00;99.90
34768;DHT22;21755;43.608;1.236;2022-09-09T06:21:46;19.90;99.90
34768;DHT22;21755;43.608;1.236;2022-09-09T06:24:13;20.00;99.90
34768;DHT22;21755;43.608;1.236;2022-09-09T06:26:43;20.00;99.90
34768;DHT22;21755;43.608;1.236;2022-09-09T06:29:09;19.90;99.90
34768;DHT22;21755;43.608;1.236;2022-09-09T06:31:36;20.30;99.90
34768;DHT22;21755;43.608;1.236;2022-09-09T06:34:04;20.90;99.90
34768;DHT22;21755;43.608;1.236;2022-09-09T06:36:33;20.60;99.90
34768;DHT22;21755;43.608;1.236;2022-09-09T06:39:00;21.00;99.90
34768;DHT22;21755;43.608;1.236;2022-09-09T06:41:28;21.00;99.90
34768;DHT22;21755;43.608;1.236;2022-09-09T06:43:54;20.60;99.90
34768;DHT22;21755;43.608;1.236;2022-09-09T06:46:25;20.60;99.90
34768;DHT22;21755;43.608;1.236;2022-09-09T06:48:55;20.70;99.90
34768;DHT22;21755;43.608;1.236;2022-09-09T06:51:24;20.90;99.90
34768;DHT22;21755;43.608;1.236;2022-09-09T06:53:55;20.90;99.90
34768;DHT22;21755;43.608;1.236;2022-09-09T06:56:35;20.80;99.90
34768;DHT22;21755;43.608;1.236;2022-09-09T06:59:04;21.00;99.90
34768;DHT22;21755;43.608;1.236;2022-09-09T07:01:37;21.10;99.90
34768;DHT22;21755;43.608;1.236;2022-09-09T07:04:05;20.60;99.90
34768;DHT22;21755;43.608;1.236;2022-09-09T07:06:44;20.10;99.90
34768;DHT22;21755;43.608;1.236;2022-09-09T07:09:15;19.70;99.90
34768;DHT22;21755;43.608;1.236;2022-09-09T07:11:47;19.50;99.90
34768;DHT22;21755;43.608;1.236;2022-09-09T07:14:14;19.30;99.90
34768;DHT22;21755;43.608;1.236;2022-09-09T07:16:41;19.20;99.90
34768;DHT22;21755;43.608;1.236;2022-09-09T07:19:07;19.10;99.90
34768;DHT22;21755;43.608;1.236;2022-09-09T07:21:33;19.10;99.90
34768;DHT22;21755;43.608;1.236;2022-09-09T07:24:00;19.00;99.90
34768;DHT22;21755;43.608;1.236;2022-09-09T07:26:28;19.00;99.90
34768;DHT22;21755;43.608;1.236;2022-09-09T07:28:54;19.00;99.90
34768;DHT22;21755;43.608;1.236;2022-09-09T07:31:24;19.00;99.90
34768;DHT22;21755;43.608;1.236;2022-09-09T07:33:51;19.00;99.90
34768;DHT22;21755;43.608;1.236;2022-09-09T07:36:23;19.00;99.90
34768;DHT22;21755;43.608;1.236;2022-09-09T07:38:52;19.00;99.90
34768;DHT22;21755;43.608;1.236;2022-09-09T07:43:49;19.00;99.90
34768;DHT22;21755;43.608;1.236;2022-09-09T07:46:20;19.00;99.90
34768;DHT22;21755;43.608;1.236;2022-09-09T07:48:53;19.00;99.90
34768;DHT22;21755;43.608;1.236;2022-09-09T07:51:33;19.00;99.90
34768;DHT22;21755;43.608;1.236;2022-09-09T07:54:01;19.00;99.90
34768;DHT22;21755;43.608;1.236;2022-09-09T07:56:29;19.00;99.90
34768;DHT22;21755;43.608;1.236;2022-09-09T07:58:56;19.00;99.90
34768;DHT22;21755;43.608;1.236;2022-09-09T08:01:30;19.00;99.90
34768;DHT22;21755;43.608;1.236;2022-09-09T08:03:59;19.00;99.90
34768;DHT22;21755;43.608;1.236;2022-09-09T08:06:40;18.90;99.90
34768;DHT22;21755;43.608;1.236;2022-09-09T08:09:07;18.90;99.90
34768;DHT22;21755;43.608;1.236;2022-09-09T08:11:34;18.90;99.90
34768;DHT22;21755;43.608;1.236;2022-09-09T08:14:02;18.90;99.90
34768;DHT22;21755;43.608;1.236;2022-09-09T08:16:31;18.90;99.90
34768;DHT22;21755;43.608;1.236;2022-09-09T08:18:58;18.80;99.90
34768;DHT22;21755;43.608;1.236;2022-09-09T08:21:28;18.90;99.90
34768;DHT22;21755;43.608;1.236;2022-09-09T08:23:56;18.80;99.90
34768;DHT22;21755;43.608;1.236;2022-09-09T08:26:39;18.90;99.90
34768;DHT22;21755;43.608;1.236;2022-09-09T08:29:08;18.80;99.90
34768;DHT22;21755;43.608;1.236;2022-09-09T08:31:41;18.70;99.90
34768;DHT22;21755;43.608;1.236;2022-09-09T08:34:08;18.60;99.90
34768;DHT22;21755;43.608;1.236;2022-09-09T08:36:44;18.60;99.90
34768;DHT22;21755;43.608;1.236;2022-09-09T08:39:12;18.50;99.90
34768;DHT22;21755;43.608;1.236;2022-09-09T08:42:17;18.50;99.90
34768;DHT22;21755;43.608;1.236;2022-09-09T08:50:36;18.30;99.90
34768;DHT22;21755;43.608;1.236;2022-09-09T08:53:11;18.20;99.90
34768;DHT22;21755;43.608;1.236;2022-09-09T08:55:52;18.10;99.90
34768;DHT22;21755;43.608;1.236;2022-09-09T08:58:23;18.10;99.90
34768;DHT22;21755;43.608;1.236;2022-09-09T09:11:57;18.00;99.90
34768;DHT22;21755;43.608;1.236;2022-09-09T09:14:33;18.00;99.90
34768;DHT22;21755;43.608;1.236;2022-09-09T09:17:06;17.90;99.90
34768;DHT22;21755;43.608;1.236;2022-09-09T09:19:37;17.80;99.90
34768;DHT22;21755;43.608;1.236;2022-09-09T09:22:18;17.70;99.90
34768;DHT22;21755;43.608;1.236;2022-09-09T09:25:03;17.30;99.90
34768;DHT22;21755;43.608;1.236;2022-09-09T09:30:21;16.80;99.90
34768;DHT22;21755;43.608;1.236;2022-09-09T09:35:27;16.90;99.90
34768;DHT22;21755;43.608;1.236;2022-09-09T09:37:53;16.90;99.90
34768;DHT22;21755;43.608;1.236;2022-09-09T09:40:21;16.90;99.90
34768;DHT22;21755;43.608;1.236;2022-09-09T09:42:58;16.70;99.90
34768;DHT22;21755;43.608;1.236;2022-09-09T09:48:05;16.60;99.90
34768;DHT22;21755;43.608;1.236;2022-09-09T09:50:32;16.40;99.90
34768;DHT22;21755;43.608;1.236;2022-09-09T09:53:03;16.20;99.90
34768;DHT22;21755;43.608;1.236;2022-09-09T09:55:31;16.20;99.90
34768;DHT22;21755;43.608;1.236;2022-09-09T09:58:06;16.10;99.90
34768;DHT22;21755;43.608;1.236;2022-09-09T10:00:33;16.20;99.90
34768;DHT22;21755;43.608;1.236;2022-09-09T10:03:01;16.30;99.90
34768;DHT22;21755;43.608;1.236;2022-09-09T10:05:30;16.20;99.90
34768;DHT22;21755;43.608;1.236;2022-09-09T10:08:02;16.30;99.90
34768;DHT22;21755;43.608;1.236;2022-09-09T10:16:42;16.40;99.90
34768;DHT22;21755;43.608;1.236;2022-09-09T10:22:31;16.90;99.90
34768;DHT22;21755;43.608;1.236;2022-09-09T10:27:44;17.20;99.90
34768;DHT22;21755;43.608;1.236;2022-09-09T10:33:12;17.40;99.90
34768;DHT22;21755;43.608;1.236;2022-09-09T10:36:08;17.50;99.90
34768;DHT22;21755;43.608;1.236;2022-09-09T10:38:41;17.70;99.90
34768;DHT22;21755;43.608;1.236;2022-09-09T10:44:17;18.00;99.90
34768;DHT22;21755;43.608;1.236;2022-09-09T10:55:19;18.20;99.90
34768;DHT22;21755;43.608;1.236;2022-09-09T10:57:50;18.20;99.90
34768;DHT22;21755;43.608;1.236;2022-09-09T11:00:26;18.20;99.90
34768;DHT22;21755;43.608;1.236;2022-09-09T11:03:00;18.30;99.90
34768;DHT22;21755;43.608;1.236;2022-09-09T11:05:31;18.30;99.90
34768;DHT22;21755;43.608;1.236;2022-09-09T11:08:04;18.50;99.90
34768;DHT22;21755;43.608;1.236;2022-09-09T11:13:37;18.60;99.90
34768;DHT22;21755;43.608;1.236;2022-09-09T11:18:42;18.70;99.90
34768;DHT22;21755;43.608;1.236;2022-09-09T11:21:23;18.70;99.90
34768;DHT22;21755;43.608;1.236;2022-09-09T11:23:59;18.80;99.90
34768;DHT22;21755;43.608;1.236;2022-09-09T11:35:49;19.10;99.90
34768;DHT22;21755;43.608;1.236;2022-09-09T11:38:29;19.10;99.90
34768;DHT22;21755;43.608;1.236;2022-09-09T11:41:02;19.30;99.90
34768;DHT22;21755;43.608;1.236;2022-09-09T11:43:31;19.30;99.90
34768;DHT22;21755;43.608;1.236;2022-09-09T11:46:00;19.30;99.90
34768;DHT22;21755;43.608;1.236;2022-09-09T11:48:57;19.40;99.90
34768;DHT22;21755;43.608;1.236;2022-09-09T11:53:53;19.50;99.90
34768;DHT22;21755;43.608;1.236;2022-09-09T11:56:32;19.50;99.90
34768;DHT22;21755;43.608;1.236;2022-09-09T11:59:04;19.60;99.90
34768;DHT22;21755;43.608;1.236;2022-09-09T12:01:43;19.70;99.90
34768;DHT22;21755;43.608;1.236;2022-09-09T12:04:11;19.60;99.90
34768;DHT22;21755;43.608;1.236;2022-09-09T12:14:43;19.70;99.90
34768;DHT22;21755;43.608;1.236;2022-09-09T12:19:36;19.90;99.90
34768;DHT22;21755;43.608;1.236;2022-09-09T12:27:59;20.10;99.90
34768;DHT22;21755;43.608;1.236;2022-09-09T12:30:41;20.20;99.90
34768;DHT22;21755;43.608;1.236;2022-09-09T12:33:12;20.20;99.90
34768;DHT22;21755;43.608;1.236;2022-09-09T12:35:39;20.10;99.90
34768;DHT22;21755;43.608;1.236;2022-09-09T12:38:13;20.10;99.90
34768;DHT22;21755;43.608;1.236;2022-09-09T12:40:41;20.10;99.90
34768;DHT22;21755;43.608;1.236;2022-09-09T12:43:21;20.30;99.90
34768;DHT22;21755;43.608;1.236;2022-09-09T12:45:48;20.30;99.90
34768;DHT22;21755;43.608;1.236;2022-09-09T12:48:18;20.40;99.90
34768;DHT22;21755;43.608;1.236;2022-09-09T12:50:50;20.30;99.90
34768;DHT22;21755;43.608;1.236;2022-09-09T12:53:25;20.40;99.90
34768;DHT22;21755;43.608;1.236;2022-09-09T12:55:58;20.30;99.90
34768;DHT22;21755;43.608;1.236;2022-09-09T12:58:25;20.30;99.90
34768;DHT22;21755;43.608;1.236;2022-09-09T13:00:55;20.40;99.90
34768;DHT22;21755;43.608;1.236;2022-09-09T13:03:22;20.50;99.90
34768;DHT22;21755;43.608;1.236;2022-09-09T13:05:49;20.60;99.90
34768;DHT22;21755;43.608;1.236;2022-09-09T13:08:16;20.70;99.90
34768;DHT22;21755;43.608;1.236;2022-09-09T13:11:02;20.90;99.90
34768;DHT22;21755;43.608;1.236;2022-09-09T13:13:36;21.00;99.90
34768;DHT22;21755;43.608;1.236;2022-09-09T13:16:04;21.00;99.90
34768;DHT22;21755;43.608;1.236;2022-09-09T13:18:35;21.30;99.90
34768;DHT22;21755;43.608;1.236;2022-09-09T13:21:02;21.30;99.90
34768;DHT22;21755;43.608;1.236;2022-09-09T13:23:33;21.20;99.90
34768;DHT22;21755;43.608;1.236;2022-09-09T13:26:21;21.20;99.90
34768;DHT22;21755;43.608;1.236;2022-09-09T13:28:48;21.30;99.90
34768;DHT22;21755;43.608;1.236;2022-09-09T13:31:33;21.40;99.90
34768;DHT22;21755;43.608;1.236;2022-09-09T13:33:59;21.50;99.90
34768;DHT22;21755;43.608;1.236;2022-09-09T13:36:35;21.40;99.90
34768;DHT22;21755;43.608;1.236;2022-09-09T13:39:03;21.50;99.90
34768;DHT22;21755;43.608;1.236;2022-09-09T13:41:34;21.50;99.90
34768;DHT22;21755;43.608;1.236;2022-09-09T13:44:02;21.60;99.90
34768;DHT22;21755;43.608;1.236;2022-09-09T13:46:40;21.80;99.90
34768;DHT22;21755;43.608;1.236;2022-09-09T13:52:11;21.80;99.90
34768;DHT22;21755;43.608;1.236;2022-09-09T13:54:37;22.10;99.90
34768;DHT22;21755;43.608;1.236;2022-09-09T13:57:03;22.40;99.90
34768;DHT22;21755;43.608;1.236;2022-09-09T13:59:30;22.60;99.90
34768;DHT22;21755;43.608;1.236;2022-09-09T14:01:57;22.70;99.90
34768;DHT22;21755;43.608;1.236;2022-09-09T14:04:23;22.80;99.90
34768;DHT22;21755;43.608;1.236;2022-09-09T14:06:50;22.50;99.90
34768;DHT22;21755;43.608;1.236;2022-09-09T14:09:17;22.20;99.90
34768;DHT22;21755;43.608;1.236;2022-09-09T14:11:44;22.10;99.90
34768;DHT22;21755;43.608;1.236;2022-09-09T14:14:11;22.20;99.90
34768;DHT22;21755;43.608;1.236;2022-09-09T14:16:37;22.40;99.90
34768;DHT22;21755;43.608;1.236;2022-09-09T14:19:03;22.70;99.90
34768;DHT22;21755;43.608;1.236;2022-09-09T14:21:29;22.70;99.90
34768;DHT22;21755;43.608;1.236;2022-09-09T14:23:55;22.50;99.90
34768;DHT22;21755;43.608;1.236;2022-09-09T14:26:24;22.40;99.90
34768;DHT22;21755;43.608;1.236;2022-09-09T14:28:50;22.60;99.90
34768;DHT22;21755;43.608;1.236;2022-09-09T14:31:17;22.90;99.90
34768;DHT22;21755;43.608;1.236;2022-09-09T14:33:44;22.80;99.90
34768;DHT22;21755;43.608;1.236;2022-09-09T14:36:10;22.60;99.90
34768;DHT22;21755;43.608;1.236;2022-09-09T14:38:38;22.60;99.90
34768;DHT22;21755;43.608;1.236;2022-09-09T14:41:16;22.60;99.90
34768;DHT22;21755;43.608;1.236;2022-09-09T14:43:42;22.80;99.90
34768;DHT22;21755;43.608;1.236;2022-09-09T14:46:11;22.90;99.90
34768;DHT22;21755;43.608;1.236;2022-09-09T14:48:37;23.10;99.90
34768;DHT22;21755;43.608;1.236;2022-09-09T14:51:12;23.00;99.90
34768;DHT22;21755;43.608;1.236;2022-09-09T14:53:39;23.00;99.90
34768;DHT22;21755;43.608;1.236;2022-09-09T14:56:15;23.30;99.90
34768;DHT22;21755;43.608;1.236;2022-09-09T14:58:41;23.50;99.90
34768;DHT22;21755;43.608;1.236;2022-09-09T15:01:15;23.40;99.90
34768;DHT22;21755;43.608;1.236;2022-09-09T15:03:48;23.50;99.90
34768;DHT22;21755;43.608;1.236;2022-09-09T15:06:14;23.60;99.90
34768;DHT22;21755;43.608;1.236;2022-09-09T15:08:42;23.60;99.90
34768;DHT22;21755;43.608;1.236;2022-09-09T15:11:10;23.90;99.90
34768;DHT22;21755;43.608;1.236;2022-09-09T15:13:38;24.00;99.90
34768;DHT22;21755;43.608;1.236;2022-09-09T15:16:14;24.00;99.90
34768;DHT22;21755;43.608;1.236;2022-09-09T15:18:40;24.10;99.90
34768;DHT22;21755;43.608;1.236;2022-09-09T15:21:14;24.10;99.90
34768;DHT22;21755;43.608;1.236;2022-09-09T15:23:42;23.50;99.90
34768;DHT22;21755;43.608;1.236;2022-09-09T15:26:08;23.40;99.90
34768;DHT22;21755;43.608;1.236;2022-09-09T15:28:36;23.70;99.90
34768;DHT22;21755;43.608;1.236;2022-09-09T15:31:12;23.90;99.90
34768;DHT22;21755;43.608;1.236;2022-09-09T15:33:53;23.90;99.90
34768;DHT22;21755;43.608;1.236;2022-09-09T15:36:28;23.90;99.90
34768;DHT22;21755;43.608;1.236;2022-09-09T15:38:58;24.00;99.90
34768;DHT22;21755;43.608;1.236;2022-09-09T15:41:25;23.70;99.90
34768;DHT22;21755;43.608;1.236;2022-09-09T15:43:54;23.60;99.90
34768;DHT22;21755;43.608;1.236;2022-09-09T15:46:33;23.60;99.90
34768;DHT22;21755;43.608;1.236;2022-09-09T15:49:08;23.50;99.90
34768;DHT22;21755;43.608;1.236;2022-09-09T15:51:39;23.80;99.90
34768;DHT22;21755;43.608;1.236;2022-09-09T15:54:05;24.00;99.90
34768;DHT22;21755;43.608;1.236;2022-09-09T15:56:31;24.00;99.90
34768;DHT22;21755;43.608;1.236;2022-09-09T15:58:59;24.10;99.90
34768;DHT22;21755;43.608;1.236;2022-09-09T16:01:26;24.30;99.90
34768;DHT22;21755;43.608;1.236;2022-09-09T16:03:53;24.40;99.90
34768;DHT22;21755;43.608;1.236;2022-09-09T16:06:21;24.50;99.90
34768;DHT22;21755;43.608;1.236;2022-09-09T16:08:50;24.60;99.90
34768;DHT22;21755;43.608;1.236;2022-09-09T16:11:19;24.60;99.90
34768;DHT22;21755;43.608;1.236;2022-09-09T16:13:49;24.50;99.90
34768;DHT22;21755;43.608;1.236;2022-09-09T16:16:18;24.40;99.90
34768;DHT22;21755;43.608;1.236;2022-09-09T16:18:46;24.00;99.90
34768;DHT22;21755;43.608;1.236;2022-09-09T16:21:16;23.80;99.90
34768;DHT22;21755;43.608;1.236;2022-09-09T16:23:43;23.70;99.90
34768;DHT22;21755;43.608;1.236;2022-09-09T16:26:14;23.60;99.90
34768;DHT22;21755;43.608;1.236;2022-09-09T16:28:40;23.70;99.90
34768;DHT22;21755;43.608;1.236;2022-09-09T16:31:12;23.70;99.90
34768;DHT22;21755;43.608;1.236;2022-09-09T16:33:39;23.60;99.90
34768;DHT22;21755;43.608;1.236;2022-09-09T16:36:07;23.40;99.90
34768;DHT22;21755;43.608;1.236;2022-09-09T16:38:34;23.30;99.90
34768;DHT22;21755;43.608;1.236;2022-09-09T16:41:02;23.10;99.90
34768;DHT22;21755;43.608;1.236;2022-09-09T16:43:31;23.10;99.90
34768;DHT22;21755;43.608;1.236;2022-09-09T16:45:57;23.00;99.90
34768;DHT22;21755;43.608;1.236;2022-09-09T16:48:23;23.00;99.90
34768;DHT22;21755;43.608;1.236;2022-09-09T16:50:49;22.90;99.90
34768;DHT22;21755;43.608;1.236;2022-09-09T16:53:15;22.90;99.90
34768;DHT22;21755;43.608;1.236;2022-09-09T16:55:41;22.90;99.90
34768;DHT22;21755;43.608;1.236;2022-09-09T16:58:10;22.90;99.90
34768;DHT22;21755;43.608;1.236;2022-09-09T17:00:36;23.00;99.90
34768;DHT22;21755;43.608;1.236;2022-09-09T17:03:02;23.00;99.90
34768;DHT22;21755;43.608;1.236;2022-09-09T17:05:29;22.90;99.90
34768;DHT22;21755;43.608;1.236;2022-09-09T17:07:55;22.90;99.90
34768;DHT22;21755;43.608;1.236;2022-09-09T17:10:25;23.00;99.90
34768;DHT22;21755;43.608;1.236;2022-09-09T17:12:51;22.90;99.90
34768;DHT22;21755;43.608;1.236;2022-09-09T17:15:17;22.90;99.90
34768;DHT22;21755;43.608;1.236;2022-09-09T17:17:44;22.90;99.90
34768;DHT22;21755;43.608;1.236;2022-09-09T17:20:11;22.90;99.90
34768;DHT22;21755;43.608;1.236;2022-09-09T17:22:37;22.90;99.90
34768;DHT22;21755;43.608;1.236;2022-09-09T17:25:03;22.90;99.90
34768;DHT22;21755;43.608;1.236;2022-09-09T17:27:29;22.90;99.90
34768;DHT22;21755;43.608;1.236;2022-09-09T17:29:59;23.00;99.90
34768;DHT22;21755;43.608;1.236;2022-09-09T17:32:24;23.00;99.90
34768;DHT22;21755;43.608;1.236;2022-09-09T17:34:50;23.00;99.90
34768;DHT22;21755;43.608;1.236;2022-09-09T17:37:18;23.00;99.90
34768;DHT22;21755;43.608;1.236;2022-09-09T17:39:43;22.90;99.90
34768;DHT22;21755;43.608;1.236;2022-09-09T17:42:10;22.80;99.90
34768;DHT22;21755;43.608;1.236;2022-09-09T17:44:36;22.80;99.90
34768;DHT22;21755;43.608;1.236;2022-09-09T17:47:01;22.70;99.90
34768;DHT22;21755;43.608;1.236;2022-09-09T17:49:29;22.60;99.90
34768;DHT22;21755;43.608;1.236;2022-09-09T17:51:55;22.50;99.90
34768;DHT22;21755;43.608;1.236;2022-09-09T17:54:22;22.50;99.90
34768;DHT22;21755;43.608;1.236;2022-09-09T17:56:48;22.40;99.90
34768;DHT22;21755;43.608;1.236;2022-09-09T17:59:16;22.30;99.90